sensor_id;sensor_type;location;lat;lon;timestamp;P1;durP1;ratioP1;P2;durP2;ratioP2
16967;SDS011;64862;54.398;10.126;2023-05-08T00:02:57;5.38;;;2.63;;
16967;SDS011;64862;54.398;10.126;2023-05-08T00:13:00;7.30;;;2.50;;
16967;SDS011;64862;54.398;10.126;2023-05-08T00:23:04;6.70;;;3.08;;
16967;SDS011;64862;54.398;10.126;2023-05-08T00:33:06;4.68;;;2.55;;
16967;SDS011;64862;54.398;10.126;2023-05-08T00:43:10;5.35;;;2.60;;
16967;SDS011;64862;54.398;10.126;2023-05-08T00:53:13;4.70;;;2.40;;
16967;SDS011;64862;54.398;10.126;2023-05-08T01:03:17;4.65;;;2.67;;
16967;SDS011;64862;54.398;10.126;2023-05-08T01:13:23;5.80;;;2.83;;
16967;SDS011;64862;54.398;10.126;2023-05-08T01:33:58;4.72;;;2.70;;
16967;SDS011;64862;54.398;10.126;2023-05-08T01:44:09;5.32;;;2.70;;
16967;SDS011;64862;54.398;10.126;2023-05-08T01:54:15;6.30;;;2.85;;
16967;SDS011;64862;54.398;10.126;2023-05-08T02:04:21;4.65;;;3.05;;
16967;SDS011;64862;54.398;10.126;2023-05-08T02:14:25;6.30;;;2.90;;
16967;SDS011;64862;54.398;10.126;2023-05-08T02:24:29;8.80;;;2.85;;
16967;SDS011;64862;54.398;10.126;2023-05-08T02:34:34;3.40;;;2.28;;
16967;SDS011;64862;54.398;10.126;2023-05-08T02:44:37;4.32;;;2.47;;
16967;SDS011;64862;54.398;10.126;2023-05-08T02:54:42;5.53;;;2.70;;
16967;SDS011;64862;54.398;10.126;2023-05-08T03:04:48;5.55;;;2.65;;
16967;SDS011;64862;54.398;10.126;2023-05-08T03:14:54;6.07;;;2.72;;
16967;SDS011;64862;54.398;10.126;2023-05-08T03:24:58;6.45;;;2.90;;
16967;SDS011;64862;54.398;10.126;2023-05-08T03:35:03;7.55;;;2.97;;
16967;SDS011;64862;54.398;10.126;2023-05-08T03:45:07;4.25;;;2.80;;
16967;SDS011;64862;54.398;10.126;2023-05-08T03:55:12;5.22;;;2.60;;
16967;SDS011;64862;54.398;10.126;2023-05-08T04:05:16;5.63;;;2.83;;
16967;SDS011;64862;54.398;10.126;2023-05-08T04:15:25;5.60;;;3.03;;
16967;SDS011;64862;54.398;10.126;2023-05-08T04:25:29;4.13;;;2.58;;
16967;SDS011;64862;54.398;10.126;2023-05-08T04:35:34;4.53;;;2.80;;
16967;SDS011;64862;54.398;10.126;2023-05-08T04:45:37;5.05;;;2.58;;
16967;SDS011;64862;54.398;10.126;2023-05-08T04:55:41;4.70;;;2.40;;
16967;SDS011;64862;54.398;10.126;2023-05-08T05:05:43;4.78;;;2.22;;
16967;SDS011;64862;54.398;10.126;2023-05-08T05:15:48;5.22;;;3.00;;
16967;SDS011;64862;54.398;10.126;2023-05-08T05:25:54;4.65;;;2.70;;
16967;SDS011;64862;54.398;10.126;2023-05-08T05:35:58;4.53;;;2.60;;
16967;SDS011;64862;54.398;10.126;2023-05-08T05:46:04;5.68;;;3.17;;
16967;SDS011;64862;54.398;10.126;2023-05-08T05:56:08;8.13;;;3.42;;
16967;SDS011;64862;54.398;10.126;2023-05-08T06:06:11;5.65;;;3.42;;
16967;SDS011;64862;54.398;10.126;2023-05-08T06:16:16;6.55;;;3.28;;
16967;SDS011;64862;54.398;10.126;2023-05-08T06:26:19;8.65;;;3.40;;
16967;SDS011;64862;54.398;10.126;2023-05-08T06:36:24;7.50;;;3.28;;
16967;SDS011;64862;54.398;10.126;2023-05-08T06:46:27;8.80;;;3.80;;
16967;SDS011;64862;54.398;10.126;2023-05-08T06:56:31;5.35;;;3.38;;
16967;SDS011;64862;54.398;10.126;2023-05-08T07:06:34;7.80;;;3.38;;
16967;SDS011;64862;54.398;10.126;2023-05-08T07:16:38;5.43;;;3.45;;
16967;SDS011;64862;54.398;10.126;2023-05-08T07:26:41;5.07;;;3.30;;
16967;SDS011;64862;54.398;10.126;2023-05-08T07:36:45;4.70;;;2.92;;
16967;SDS011;64862;54.398;10.126;2023-05-08T07:46:48;6.45;;;3.35;;
16967;SDS011;64862;54.398;10.126;2023-05-08T07:56:52;4.93;;;3.15;;
16967;SDS011;64862;54.398;10.126;2023-05-08T08:06:55;5.75;;;2.90;;
16967;SDS011;64862;54.398;10.126;2023-05-08T08:16:59;4.72;;;2.65;;
16967;SDS011;64862;54.398;10.126;2023-05-08T08:27:01;4.22;;;2.38;;
16967;SDS011;64862;54.398;10.126;2023-05-08T08:37:06;4.07;;;2.10;;
16967;SDS011;64862;54.398;10.126;2023-05-08T08:47:09;4.97;;;1.92;;
16967;SDS011;64862;54.398;10.126;2023-05-08T08:57:13;3.40;;;2.10;;
16967;SDS011;64862;54.398;10.126;2023-05-08T09:07:16;3.63;;;1.90;;
16967;SDS011;64862;54.398;10.126;2023-05-08T09:17:20;4.85;;;1.85;;
16967;SDS011;64862;54.398;10.126;2023-05-08T09:27:23;2.80;;;1.77;;
16967;SDS011;64862;54.398;10.126;2023-05-08T09:37:28;2.13;;;1.25;;
16967;SDS011;64862;54.398;10.126;2023-05-08T09:47:31;3.90;;;1.30;;
16967;SDS011;64862;54.398;10.126;2023-05-08T09:57:35;2.15;;;1.20;;
16967;SDS011;64862;54.398;10.126;2023-05-08T10:07:38;2.97;;;1.63;;
16967;SDS011;64862;54.398;10.126;2023-05-08T10:17:43;1.95;;;1.20;;
16967;SDS011;64862;54.398;10.126;2023-05-08T10:27:51;2.20;;;1.13;;
16967;SDS011;64862;54.398;10.126;2023-05-08T10:37:56;3.17;;;1.27;;
16967;SDS011;64862;54.398;10.126;2023-05-08T10:48:02;1.80;;;1.20;;
16967;SDS011;64862;54.398;10.126;2023-05-08T10:58:10;2.65;;;1.00;;
16967;SDS011;64862;54.398;10.126;2023-05-08T11:08:14;3.70;;;1.30;;
16967;SDS011;64862;54.398;10.126;2023-05-08T11:18:18;3.33;;;1.40;;
16967;SDS011;64862;54.398;10.126;2023-05-08T11:28:21;3.72;;;1.20;;
16967;SDS011;64862;54.398;10.126;2023-05-08T11:38:37;4.13;;;1.20;;
16967;SDS011;64862;54.398;10.126;2023-05-08T11:48:40;3.30;;;1.20;;
16967;SDS011;64862;54.398;10.126;2023-05-08T11:58:44;5.40;;;1.45;;
16967;SDS011;64862;54.398;10.126;2023-05-08T12:08:46;3.47;;;1.30;;
16967;SDS011;64862;54.398;10.126;2023-05-08T12:18:51;6.30;;;1.40;;
16967;SDS011;64862;54.398;10.126;2023-05-08T12:28:54;2.55;;;1.30;;
16967;SDS011;64862;54.398;10.126;2023-05-08T12:39:11;4.15;;;1.30;;
16967;SDS011;64862;54.398;10.126;2023-05-08T12:49:21;5.27;;;1.50;;
16967;SDS011;64862;54.398;10.126;2023-05-08T12:59:28;3.88;;;1.73;;
16967;SDS011;64862;54.398;10.126;2023-05-08T13:09:32;3.08;;;1.40;;
16967;SDS011;64862;54.398;10.126;2023-05-08T13:19:37;4.53;;;1.50;;
16967;SDS011;64862;54.398;10.126;2023-05-08T13:29:39;5.38;;;1.50;;
16967;SDS011;64862;54.398;10.126;2023-05-08T13:39:43;3.25;;;1.48;;
16967;SDS011;64862;54.398;10.126;2023-05-08T13:49:46;2.47;;;1.23;;
16967;SDS011;64862;54.398;10.126;2023-05-08T13:59:51;5.90;;;1.35;;
16967;SDS011;64862;54.398;10.126;2023-05-08T14:09:53;6.22;;;1.25;;
16967;SDS011;64862;54.398;10.126;2023-05-08T14:19:57;3.28;;;1.15;;
16967;SDS011;64862;54.398;10.126;2023-05-08T14:30:00;3.33;;;1.27;;
16967;SDS011;64862;54.398;10.126;2023-05-08T14:40:05;5.10;;;1.45;;
16967;SDS011;64862;54.398;10.126;2023-05-08T14:50:08;5.82;;;1.30;;
16967;SDS011;64862;54.398;10.126;2023-05-08T15:00:14;4.70;;;1.40;;
16967;SDS011;64862;54.398;10.126;2023-05-08T15:10:19;6.10;;;1.40;;
16967;SDS011;64862;54.398;10.126;2023-05-08T15:20:23;6.03;;;1.20;;
16967;SDS011;64862;54.398;10.126;2023-05-08T15:30:26;7.43;;;1.20;;
16967;SDS011;64862;54.398;10.126;2023-05-08T15:40:30;2.88;;;1.10;;
16967;SDS011;64862;54.398;10.126;2023-05-08T15:50:32;5.15;;;1.10;;
16967;SDS011;64862;54.398;10.126;2023-05-08T16:00:36;5.00;;;1.10;;
16967;SDS011;64862;54.398;10.126;2023-05-08T16:10:39;3.20;;;1.20;;
16967;SDS011;64862;54.398;10.126;2023-05-08T16:20:43;3.10;;;1.10;;
16967;SDS011;64862;54.398;10.126;2023-05-08T16:30:46;4.97;;;1.23;;
16967;SDS011;64862;54.398;10.126;2023-05-08T16:40:50;3.97;;;1.15;;
16967;SDS011;64862;54.398;10.126;2023-05-08T16:50:53;7.25;;;1.15;;
16967;SDS011;64862;54.398;10.126;2023-05-08T17:00:57;2.75;;;1.20;;
16967;SDS011;64862;54.398;10.126;2023-05-08T17:11:01;3.80;;;1.15;;
16967;SDS011;64862;54.398;10.126;2023-05-08T17:21:05;7.78;;;1.40;;
16967;SDS011;64862;54.398;10.126;2023-05-08T17:31:07;6.88;;;1.40;;
16967;SDS011;64862;54.398;10.126;2023-05-08T17:41:12;4.25;;;1.00;;
16967;SDS011;64862;54.398;10.126;2023-05-08T17:51:14;5.30;;;1.30;;
16967;SDS011;64862;54.398;10.126;2023-05-08T18:01:18;7.35;;;1.27;;
16967;SDS011;64862;54.398;10.126;2023-05-08T18:11:21;4.07;;;1.20;;
16967;SDS011;64862;54.398;10.126;2023-05-08T18:21:27;4.45;;;1.30;;
16967;SDS011;64862;54.398;10.126;2023-05-08T18:31:32;7.95;;;1.50;;
16967;SDS011;64862;54.398;10.126;2023-05-08T18:41:36;4.00;;;1.30;;
16967;SDS011;64862;54.398;10.126;2023-05-08T18:51:39;5.50;;;1.55;;
16967;SDS011;64862;54.398;10.126;2023-05-08T19:01:43;4.45;;;1.40;;
16967;SDS011;64862;54.398;10.126;2023-05-08T19:11:47;3.17;;;1.50;;
16967;SDS011;64862;54.398;10.126;2023-05-08T19:21:51;6.25;;;1.50;;
16967;SDS011;64862;54.398;10.126;2023-05-08T19:31:54;4.03;;;1.42;;
16967;SDS011;64862;54.398;10.126;2023-05-08T19:41:59;5.40;;;1.63;;
16967;SDS011;64862;54.398;10.126;2023-05-08T19:52:01;4.55;;;1.70;;
16967;SDS011;64862;54.398;10.126;2023-05-08T20:02:05;4.50;;;1.70;;
16967;SDS011;64862;54.398;10.126;2023-05-08T20:12:08;4.47;;;1.67;;
16967;SDS011;64862;54.398;10.126;2023-05-08T20:22:12;4.80;;;1.63;;
16967;SDS011;64862;54.398;10.126;2023-05-08T20:32:15;6.68;;;1.55;;
16967;SDS011;64862;54.398;10.126;2023-05-08T20:42:19;3.10;;;1.40;;
16967;SDS011;64862;54.398;10.126;2023-05-08T20:52:22;4.72;;;1.70;;
16967;SDS011;64862;54.398;10.126;2023-05-08T21:02:26;4.20;;;1.30;;
16967;SDS011;64862;54.398;10.126;2023-05-08T21:12:28;4.20;;;1.60;;
16967;SDS011;64862;54.398;10.126;2023-05-08T21:22:33;3.00;;;1.65;;
16967;SDS011;64862;54.398;10.126;2023-05-08T21:32:47;3.00;;;1.58;;
16967;SDS011;64862;54.398;10.126;2023-05-08T21:42:52;4.43;;;1.67;;
16967;SDS011;64862;54.398;10.126;2023-05-08T21:52:55;5.72;;;1.65;;
16967;SDS011;64862;54.398;10.126;2023-05-08T22:02:59;3.90;;;1.50;;
16967;SDS011;64862;54.398;10.126;2023-05-08T22:13:01;3.20;;;1.35;;
16967;SDS011;64862;54.398;10.126;2023-05-08T22:23:06;5.00;;;1.77;;
16967;SDS011;64862;54.398;10.126;2023-05-08T22:33:10;5.45;;;1.40;;
16967;SDS011;64862;54.398;10.126;2023-05-08T22:43:14;7.50;;;1.50;;
16967;SDS011;64862;54.398;10.126;2023-05-08T22:53:17;3.22;;;1.40;;
16967;SDS011;64862;54.398;10.126;2023-05-08T23:03:21;4.07;;;1.60;;
16967;SDS011;64862;54.398;10.126;2023-05-08T23:13:24;8.50;;;2.03;;
16967;SDS011;64862;54.398;10.126;2023-05-08T23:23:28;3.35;;;1.65;;
16967;SDS011;64862;54.398;10.126;2023-05-08T23:33:31;3.33;;;1.70;;
16967;SDS011;64862;54.398;10.126;2023-05-08T23:43:35;6.45;;;1.73;;
16967;SDS011;64862;54.398;10.126;2023-05-08T23:53:38;5.63;;;1.92;;
